sensor_id;sensor_type;location;lat;lon;timestamp;P1;durP1;ratioP1;P2;durP2;ratioP2
84974;SDS011;75284;50.310;19.284;2024-01-07T00:00:15;18.30;;;9.00;;
84974;SDS011;75284;50.310;19.284;2024-01-07T00:03:05;13.10;;;7.30;;
84974;SDS011;75284;50.310;19.284;2024-01-07T00:05:36;16.70;;;7.70;;
84974;SDS011;75284;50.310;19.284;2024-01-07T00:08:07;11.70;;;6.60;;
84974;SDS011;75284;50.310;19.284;2024-01-07T00:10:36;11.70;;;6.40;;
84974;SDS011;75284;50.310;19.284;2024-01-07T00:13:10;7.50;;;4.50;;
84974;SDS011;75284;50.310;19.284;2024-01-07T00:15:44;14.60;;;6.70;;
84974;SDS011;75284;50.310;19.284;2024-01-07T00:18:13;19.60;;;10.90;;
84974;SDS011;75284;50.310;19.284;2024-01-07T00:20:43;18.00;;;8.80;;
84974;SDS011;75284;50.310;19.284;2024-01-07T00:23:13;11.20;;;5.80;;
84974;SDS011;75284;50.310;19.284;2024-01-07T00:25:42;8.20;;;4.00;;
84974;SDS011;75284;50.310;19.284;2024-01-07T00:28:12;13.90;;;5.80;;
84974;SDS011;75284;50.310;19.284;2024-01-07T00:30:42;10.30;;;6.10;;
84974;SDS011;75284;50.310;19.284;2024-01-07T00:33:11;4.80;;;2.60;;
84974;SDS011;75284;50.310;19.284;2024-01-07T00:35:41;12.70;;;7.20;;
84974;SDS011;75284;50.310;19.284;2024-01-07T00:38:11;14.70;;;7.10;;
84974;SDS011;75284;50.310;19.284;2024-01-07T00:40:40;12.60;;;6.60;;
84974;SDS011;75284;50.310;19.284;2024-01-07T00:43:11;7.10;;;4.10;;
84974;SDS011;75284;50.310;19.284;2024-01-07T00:45:40;8.30;;;4.70;;
84974;SDS011;75284;50.310;19.284;2024-01-07T00:48:10;7.20;;;3.40;;
84974;SDS011;75284;50.310;19.284;2024-01-07T00:50:40;8.10;;;4.80;;
84974;SDS011;75284;50.310;19.284;2024-01-07T00:53:14;5.90;;;4.10;;
84974;SDS011;75284;50.310;19.284;2024-01-07T00:55:44;6.10;;;3.60;;
84974;SDS011;75284;50.310;19.284;2024-01-07T00:58:13;9.70;;;5.30;;
84974;SDS011;75284;50.310;19.284;2024-01-07T01:00:47;9.50;;;4.80;;
84974;SDS011;75284;50.310;19.284;2024-01-07T01:03:17;7.00;;;2.90;;
84974;SDS011;75284;50.310;19.284;2024-01-07T01:05:47;7.80;;;4.40;;
84974;SDS011;75284;50.310;19.284;2024-01-07T01:08:17;9.10;;;4.60;;
84974;SDS011;75284;50.310;19.284;2024-01-07T01:10:46;9.70;;;4.60;;
84974;SDS011;75284;50.310;19.284;2024-01-07T01:13:16;10.10;;;5.70;;
84974;SDS011;75284;50.310;19.284;2024-01-07T01:15:48;14.60;;;6.90;;
84974;SDS011;75284;50.310;19.284;2024-01-07T01:18:18;14.80;;;7.00;;
84974;SDS011;75284;50.310;19.284;2024-01-07T01:20:47;13.40;;;6.30;;
84974;SDS011;75284;50.310;19.284;2024-01-07T01:23:17;9.90;;;4.80;;
84974;SDS011;75284;50.310;19.284;2024-01-07T01:25:47;11.90;;;5.90;;
84974;SDS011;75284;50.310;19.284;2024-01-07T01:28:16;5.90;;;3.30;;
84974;SDS011;75284;50.310;19.284;2024-01-07T01:30:46;7.20;;;4.20;;
84974;SDS011;75284;50.310;19.284;2024-01-07T01:33:15;7.90;;;4.20;;
84974;SDS011;75284;50.310;19.284;2024-01-07T01:35:45;7.10;;;3.50;;
84974;SDS011;75284;50.310;19.284;2024-01-07T01:38:14;11.90;;;6.30;;
84974;SDS011;75284;50.310;19.284;2024-01-07T01:40:50;15.80;;;7.30;;
84974;SDS011;75284;50.310;19.284;2024-01-07T01:43:24;13.10;;;6.40;;
84974;SDS011;75284;50.310;19.284;2024-01-07T01:45:58;9.70;;;3.90;;
84974;SDS011;75284;50.310;19.284;2024-01-07T01:48:28;8.80;;;3.70;;
84974;SDS011;75284;50.310;19.284;2024-01-07T01:50:57;6.10;;;3.30;;
84974;SDS011;75284;50.310;19.284;2024-01-07T01:53:27;8.00;;;3.10;;
84974;SDS011;75284;50.310;19.284;2024-01-07T01:55:58;10.50;;;5.60;;
84974;SDS011;75284;50.310;19.284;2024-01-07T01:58:30;11.90;;;5.30;;
84974;SDS011;75284;50.310;19.284;2024-01-07T02:01:01;9.80;;;4.70;;
84974;SDS011;75284;50.310;19.284;2024-01-07T02:03:33;7.40;;;3.80;;
84974;SDS011;75284;50.310;19.284;2024-01-07T02:06:02;13.00;;;6.80;;
84974;SDS011;75284;50.310;19.284;2024-01-07T02:08:33;8.40;;;4.20;;
84974;SDS011;75284;50.310;19.284;2024-01-07T02:11:15;4.80;;;2.60;;
84974;SDS011;75284;50.310;19.284;2024-01-07T02:13:48;8.30;;;3.70;;
84974;SDS011;75284;50.310;19.284;2024-01-07T02:16:20;11.50;;;4.20;;
84974;SDS011;75284;50.310;19.284;2024-01-07T02:18:49;13.30;;;5.50;;
84974;SDS011;75284;50.310;19.284;2024-01-07T02:21:19;9.70;;;5.20;;
84974;SDS011;75284;50.310;19.284;2024-01-07T02:23:49;6.10;;;3.30;;
84974;SDS011;75284;50.310;19.284;2024-01-07T02:26:18;7.60;;;4.10;;
84974;SDS011;75284;50.310;19.284;2024-01-07T02:28:48;6.20;;;3.70;;
84974;SDS011;75284;50.310;19.284;2024-01-07T02:31:17;5.80;;;2.80;;
84974;SDS011;75284;50.310;19.284;2024-01-07T02:33:47;7.50;;;3.70;;
84974;SDS011;75284;50.310;19.284;2024-01-07T02:36:17;6.40;;;2.90;;
84974;SDS011;75284;50.310;19.284;2024-01-07T02:38:46;10.50;;;4.80;;
84974;SDS011;75284;50.310;19.284;2024-01-07T02:41:16;8.80;;;3.20;;
84974;SDS011;75284;50.310;19.284;2024-01-07T02:43:47;8.40;;;3.80;;
84974;SDS011;75284;50.310;19.284;2024-01-07T02:46:19;3.70;;;2.30;;
84974;SDS011;75284;50.310;19.284;2024-01-07T02:48:50;5.00;;;3.00;;
84974;SDS011;75284;50.310;19.284;2024-01-07T02:51:24;5.70;;;3.20;;
84974;SDS011;75284;50.310;19.284;2024-01-07T02:53:53;10.50;;;4.90;;
84974;SDS011;75284;50.310;19.284;2024-01-07T02:56:23;8.10;;;4.40;;
84974;SDS011;75284;50.310;19.284;2024-01-07T02:58:53;7.90;;;3.90;;
84974;SDS011;75284;50.310;19.284;2024-01-07T03:01:23;7.20;;;3.70;;
84974;SDS011;75284;50.310;19.284;2024-01-07T03:03:53;8.40;;;5.00;;
84974;SDS011;75284;50.310;19.284;2024-01-07T03:06:23;6.20;;;3.40;;
84974;SDS011;75284;50.310;19.284;2024-01-07T03:08:55;6.60;;;2.90;;
84974;SDS011;75284;50.310;19.284;2024-01-07T03:11:25;5.80;;;2.80;;
84974;SDS011;75284;50.310;19.284;2024-01-07T03:13:55;4.30;;;2.50;;
84974;SDS011;75284;50.310;19.284;2024-01-07T03:16:28;6.20;;;3.10;;
84974;SDS011;75284;50.310;19.284;2024-01-07T03:18:58;7.90;;;3.90;;
84974;SDS011;75284;50.310;19.284;2024-01-07T03:21:29;4.40;;;2.50;;
84974;SDS011;75284;50.310;19.284;2024-01-07T03:23:59;7.90;;;3.60;;
84974;SDS011;75284;50.310;19.284;2024-01-07T03:26:30;4.90;;;3.00;;
84974;SDS011;75284;50.310;19.284;2024-01-07T03:29:00;6.40;;;3.60;;
84974;SDS011;75284;50.310;19.284;2024-01-07T03:31:30;8.10;;;3.90;;
84974;SDS011;75284;50.310;19.284;2024-01-07T03:34:00;5.50;;;2.00;;
84974;SDS011;75284;50.310;19.284;2024-01-07T03:36:29;8.00;;;4.00;;
84974;SDS011;75284;50.310;19.284;2024-01-07T03:38:59;8.40;;;3.90;;
84974;SDS011;75284;50.310;19.284;2024-01-07T03:41:29;10.50;;;4.60;;
84974;SDS011;75284;50.310;19.284;2024-01-07T03:43:58;8.50;;;3.90;;
84974;SDS011;75284;50.310;19.284;2024-01-07T03:46:30;5.80;;;2.90;;
84974;SDS011;75284;50.310;19.284;2024-01-07T03:49:00;6.10;;;2.30;;
84974;SDS011;75284;50.310;19.284;2024-01-07T03:51:29;5.30;;;2.20;;
84974;SDS011;75284;50.310;19.284;2024-01-07T03:53:59;4.90;;;2.00;;
84974;SDS011;75284;50.310;19.284;2024-01-07T03:56:29;5.70;;;3.20;;
84974;SDS011;75284;50.310;19.284;2024-01-07T03:58:58;8.80;;;4.30;;
84974;SDS011;75284;50.310;19.284;2024-01-07T04:01:28;5.00;;;3.20;;
84974;SDS011;75284;50.310;19.284;2024-01-07T04:03:58;5.30;;;3.00;;
84974;SDS011;75284;50.310;19.284;2024-01-07T04:06:27;6.90;;;2.50;;
84974;SDS011;75284;50.310;19.284;2024-01-07T04:08:57;5.30;;;2.90;;
84974;SDS011;75284;50.310;19.284;2024-01-07T04:11:27;5.50;;;2.50;;
84974;SDS011;75284;50.310;19.284;2024-01-07T04:13:56;6.10;;;3.00;;
84974;SDS011;75284;50.310;19.284;2024-01-07T04:16:26;4.90;;;2.20;;
84974;SDS011;75284;50.310;19.284;2024-01-07T04:19:02;4.30;;;1.90;;
84974;SDS011;75284;50.310;19.284;2024-01-07T04:21:31;6.00;;;2.00;;
84974;SDS011;75284;50.310;19.284;2024-01-07T04:24:01;7.10;;;4.30;;
84974;SDS011;75284;50.310;19.284;2024-01-07T04:26:32;8.70;;;3.90;;
84974;SDS011;75284;50.310;19.284;2024-01-07T04:29:01;3.80;;;1.90;;
84974;SDS011;75284;50.310;19.284;2024-01-07T04:31:31;3.00;;;2.00;;
84974;SDS011;75284;50.310;19.284;2024-01-07T04:34:00;3.20;;;1.70;;
84974;SDS011;75284;50.310;19.284;2024-01-07T04:36:30;2.90;;;1.50;;
84974;SDS011;75284;50.310;19.284;2024-01-07T04:39:00;4.70;;;1.80;;
84974;SDS011;75284;50.310;19.284;2024-01-07T04:41:29;4.50;;;2.30;;
84974;SDS011;75284;50.310;19.284;2024-01-07T04:43:59;4.00;;;2.00;;
84974;SDS011;75284;50.310;19.284;2024-01-07T04:46:28;7.00;;;3.10;;
84974;SDS011;75284;50.310;19.284;2024-01-07T04:49:26;3.70;;;2.10;;
84974;SDS011;75284;50.310;19.284;2024-01-07T04:52:02;3.50;;;1.40;;
84974;SDS011;75284;50.310;19.284;2024-01-07T04:54:32;5.00;;;3.10;;
84974;SDS011;75284;50.310;19.284;2024-01-07T04:57:02;7.40;;;3.00;;
84974;SDS011;75284;50.310;19.284;2024-01-07T04:59:32;6.40;;;2.30;;
84974;SDS011;75284;50.310;19.284;2024-01-07T05:02:02;3.50;;;2.30;;
84974;SDS011;75284;50.310;19.284;2024-01-07T05:04:31;5.70;;;2.80;;
84974;SDS011;75284;50.310;19.284;2024-01-07T05:07:01;5.50;;;2.10;;
84974;SDS011;75284;50.310;19.284;2024-01-07T05:09:32;4.70;;;1.80;;
84974;SDS011;75284;50.310;19.284;2024-01-07T05:12:01;1.60;;;1.20;;
84974;SDS011;75284;50.310;19.284;2024-01-07T05:14:31;6.40;;;3.30;;
84974;SDS011;75284;50.310;19.284;2024-01-07T05:17:01;3.70;;;2.20;;
84974;SDS011;75284;50.310;19.284;2024-01-07T05:19:31;2.70;;;1.70;;
84974;SDS011;75284;50.310;19.284;2024-01-07T05:22:01;4.00;;;2.00;;
84974;SDS011;75284;50.310;19.284;2024-01-07T05:24:31;5.10;;;2.60;;
84974;SDS011;75284;50.310;19.284;2024-01-07T05:27:00;2.90;;;1.50;;
84974;SDS011;75284;50.310;19.284;2024-01-07T05:29:30;4.50;;;2.00;;
84974;SDS011;75284;50.310;19.284;2024-01-07T05:32:01;3.20;;;1.60;;
84974;SDS011;75284;50.310;19.284;2024-01-07T05:34:31;4.90;;;2.60;;
84974;SDS011;75284;50.310;19.284;2024-01-07T05:37:01;2.50;;;1.60;;
84974;SDS011;75284;50.310;19.284;2024-01-07T05:39:31;2.00;;;1.30;;
84974;SDS011;75284;50.310;19.284;2024-01-07T05:42:00;3.10;;;1.70;;
84974;SDS011;75284;50.310;19.284;2024-01-07T05:44:30;4.30;;;2.50;;
84974;SDS011;75284;50.310;19.284;2024-01-07T05:47:00;4.80;;;2.00;;
84974;SDS011;75284;50.310;19.284;2024-01-07T05:49:29;3.30;;;2.00;;
84974;SDS011;75284;50.310;19.284;2024-01-07T05:51:59;3.20;;;1.90;;
84974;SDS011;75284;50.310;19.284;2024-01-07T05:54:29;3.10;;;1.30;;
84974;SDS011;75284;50.310;19.284;2024-01-07T05:56:59;2.90;;;2.00;;
84974;SDS011;75284;50.310;19.284;2024-01-07T05:59:28;3.40;;;1.90;;
84974;SDS011;75284;50.310;19.284;2024-01-07T06:02:01;2.20;;;1.20;;
84974;SDS011;75284;50.310;19.284;2024-01-07T06:04:31;3.30;;;2.10;;
84974;SDS011;75284;50.310;19.284;2024-01-07T06:07:02;6.10;;;2.00;;
84974;SDS011;75284;50.310;19.284;2024-01-07T06:09:32;6.60;;;2.40;;
84974;SDS011;75284;50.310;19.284;2024-01-07T06:12:01;5.10;;;3.10;;
84974;SDS011;75284;50.310;19.284;2024-01-07T06:14:32;3.00;;;1.30;;
84974;SDS011;75284;50.310;19.284;2024-01-07T06:17:01;2.10;;;1.30;;
84974;SDS011;75284;50.310;19.284;2024-01-07T06:20:02;2.70;;;1.50;;
84974;SDS011;75284;50.310;19.284;2024-01-07T06:22:33;3.20;;;1.50;;
84974;SDS011;75284;50.310;19.284;2024-01-07T06:25:04;2.80;;;1.40;;
84974;SDS011;75284;50.310;19.284;2024-01-07T06:27:34;2.90;;;1.40;;
84974;SDS011;75284;50.310;19.284;2024-01-07T06:30:07;6.00;;;2.10;;
84974;SDS011;75284;50.310;19.284;2024-01-07T06:32:37;2.90;;;1.40;;
84974;SDS011;75284;50.310;19.284;2024-01-07T06:35:07;3.80;;;1.90;;
84974;SDS011;75284;50.310;19.284;2024-01-07T06:37:37;3.40;;;2.00;;
84974;SDS011;75284;50.310;19.284;2024-01-07T06:40:08;3.50;;;1.10;;
84974;SDS011;75284;50.310;19.284;2024-01-07T06:42:39;4.20;;;1.90;;
84974;SDS011;75284;50.310;19.284;2024-01-07T06:45:11;8.10;;;2.80;;
84974;SDS011;75284;50.310;19.284;2024-01-07T06:47:42;4.90;;;2.80;;
84974;SDS011;75284;50.310;19.284;2024-01-07T06:50:16;3.90;;;1.50;;
84974;SDS011;75284;50.310;19.284;2024-01-07T06:52:47;3.30;;;2.00;;
84974;SDS011;75284;50.310;19.284;2024-01-07T06:55:17;3.90;;;1.80;;
84974;SDS011;75284;50.310;19.284;2024-01-07T06:57:46;6.90;;;2.40;;
84974;SDS011;75284;50.310;19.284;2024-01-07T07:00:17;4.50;;;2.10;;
84974;SDS011;75284;50.310;19.284;2024-01-07T07:02:47;3.40;;;2.10;;
84974;SDS011;75284;50.310;19.284;2024-01-07T07:05:17;4.00;;;1.50;;
84974;SDS011;75284;50.310;19.284;2024-01-07T07:07:46;4.10;;;1.90;;
84974;SDS011;75284;50.310;19.284;2024-01-07T07:10:16;4.90;;;2.10;;
84974;SDS011;75284;50.310;19.284;2024-01-07T07:12:45;5.10;;;2.00;;
84974;SDS011;75284;50.310;19.284;2024-01-07T07:15:15;2.90;;;1.80;;
84974;SDS011;75284;50.310;19.284;2024-01-07T07:17:45;12.70;;;5.00;;
84974;SDS011;75284;50.310;19.284;2024-01-07T07:20:14;9.80;;;3.60;;
84974;SDS011;75284;50.310;19.284;2024-01-07T07:22:44;2.60;;;2.10;;
84974;SDS011;75284;50.310;19.284;2024-01-07T07:25:14;6.30;;;3.20;;
84974;SDS011;75284;50.310;19.284;2024-01-07T07:27:43;11.70;;;4.30;;
84974;SDS011;75284;50.310;19.284;2024-01-07T07:30:13;5.10;;;2.50;;
84974;SDS011;75284;50.310;19.284;2024-01-07T07:32:43;5.30;;;2.60;;
84974;SDS011;75284;50.310;19.284;2024-01-07T07:35:12;6.40;;;3.30;;
84974;SDS011;75284;50.310;19.284;2024-01-07T07:37:42;10.00;;;3.40;;
84974;SDS011;75284;50.310;19.284;2024-01-07T07:40:15;10.90;;;3.30;;
84974;SDS011;75284;50.310;19.284;2024-01-07T07:42:51;2.90;;;1.50;;
84974;SDS011;75284;50.310;19.284;2024-01-07T07:45:21;6.70;;;3.30;;
84974;SDS011;75284;50.310;19.284;2024-01-07T07:47:57;5.20;;;3.40;;
84974;SDS011;75284;50.310;19.284;2024-01-07T07:50:26;3.10;;;2.00;;
84974;SDS011;75284;50.310;19.284;2024-01-07T07:52:56;3.20;;;2.10;;
84974;SDS011;75284;50.310;19.284;2024-01-07T07:55:28;3.30;;;2.10;;
84974;SDS011;75284;50.310;19.284;2024-01-07T07:57:57;4.70;;;2.10;;
84974;SDS011;75284;50.310;19.284;2024-01-07T08:00:27;6.20;;;2.40;;
84974;SDS011;75284;50.310;19.284;2024-01-07T08:02:57;6.30;;;2.90;;
84974;SDS011;75284;50.310;19.284;2024-01-07T08:05:26;6.70;;;3.40;;
84974;SDS011;75284;50.310;19.284;2024-01-07T08:07:56;9.00;;;4.00;;
84974;SDS011;75284;50.310;19.284;2024-01-07T08:10:26;6.10;;;2.70;;
84974;SDS011;75284;50.310;19.284;2024-01-07T08:12:58;3.70;;;2.20;;
84974;SDS011;75284;50.310;19.284;2024-01-07T08:15:28;5.30;;;2.70;;
84974;SDS011;75284;50.310;19.284;2024-01-07T08:17:57;2.70;;;1.80;;
84974;SDS011;75284;50.310;19.284;2024-01-07T08:20:27;7.50;;;3.00;;
84974;SDS011;75284;50.310;19.284;2024-01-07T08:22:57;11.20;;;5.20;;
84974;SDS011;75284;50.310;19.284;2024-01-07T08:25:29;4.40;;;2.90;;
84974;SDS011;75284;50.310;19.284;2024-01-07T08:28:00;9.60;;;6.00;;
84974;SDS011;75284;50.310;19.284;2024-01-07T08:30:29;10.00;;;4.10;;
84974;SDS011;75284;50.310;19.284;2024-01-07T08:32:59;7.00;;;3.30;;
84974;SDS011;75284;50.310;19.284;2024-01-07T08:35:28;4.60;;;2.80;;
84974;SDS011;75284;50.310;19.284;2024-01-07T08:37:58;6.20;;;4.30;;
84974;SDS011;75284;50.310;19.284;2024-01-07T08:40:28;5.60;;;2.50;;
84974;SDS011;75284;50.310;19.284;2024-01-07T08:43:00;6.40;;;3.50;;
84974;SDS011;75284;50.310;19.284;2024-01-07T08:45:30;2.60;;;1.90;;
84974;SDS011;75284;50.310;19.284;2024-01-07T08:47:59;4.60;;;2.60;;
84974;SDS011;75284;50.310;19.284;2024-01-07T08:50:33;9.70;;;5.40;;
84974;SDS011;75284;50.310;19.284;2024-01-07T08:53:03;7.40;;;5.10;;
84974;SDS011;75284;50.310;19.284;2024-01-07T08:55:35;6.10;;;3.50;;
84974;SDS011;75284;50.310;19.284;2024-01-07T08:58:04;7.10;;;3.70;;
84974;SDS011;75284;50.310;19.284;2024-01-07T09:00:34;6.20;;;3.20;;
84974;SDS011;75284;50.310;19.284;2024-01-07T09:03:04;6.20;;;3.30;;
84974;SDS011;75284;50.310;19.284;2024-01-07T09:05:34;8.00;;;2.90;;
84974;SDS011;75284;50.310;19.284;2024-01-07T09:08:05;11.20;;;5.20;;
84974;SDS011;75284;50.310;19.284;2024-01-07T09:10:35;4.50;;;2.70;;
84974;SDS011;75284;50.310;19.284;2024-01-07T09:13:05;8.20;;;3.20;;
84974;SDS011;75284;50.310;19.284;2024-01-07T09:15:35;8.00;;;3.70;;
84974;SDS011;75284;50.310;19.284;2024-01-07T09:18:05;12.60;;;5.70;;
84974;SDS011;75284;50.310;19.284;2024-01-07T09:20:37;8.50;;;4.10;;
84974;SDS011;75284;50.310;19.284;2024-01-07T09:23:07;11.60;;;4.80;;
84974;SDS011;75284;50.310;19.284;2024-01-07T09:25:36;5.70;;;3.30;;
84974;SDS011;75284;50.310;19.284;2024-01-07T09:28:06;7.70;;;3.80;;
84974;SDS011;75284;50.310;19.284;2024-01-07T09:30:36;7.10;;;3.70;;
84974;SDS011;75284;50.310;19.284;2024-01-07T09:33:06;6.30;;;3.20;;
84974;SDS011;75284;50.310;19.284;2024-01-07T09:35:36;8.30;;;4.40;;
84974;SDS011;75284;50.310;19.284;2024-01-07T09:38:05;7.10;;;3.80;;
84974;SDS011;75284;50.310;19.284;2024-01-07T09:40:35;12.60;;;6.20;;
84974;SDS011;75284;50.310;19.284;2024-01-07T09:43:07;9.00;;;4.20;;
84974;SDS011;75284;50.310;19.284;2024-01-07T09:45:38;10.30;;;5.40;;
84974;SDS011;75284;50.310;19.284;2024-01-07T09:48:09;4.80;;;2.90;;
84974;SDS011;75284;50.310;19.284;2024-01-07T09:50:43;16.00;;;7.70;;
84974;SDS011;75284;50.310;19.284;2024-01-07T09:53:14;10.80;;;5.80;;
84974;SDS011;75284;50.310;19.284;2024-01-07T09:55:52;9.10;;;5.40;;
84974;SDS011;75284;50.310;19.284;2024-01-07T09:58:29;11.70;;;5.00;;
84974;SDS011;75284;50.310;19.284;2024-01-07T10:00:59;9.90;;;3.80;;
84974;SDS011;75284;50.310;19.284;2024-01-07T10:03:29;18.70;;;8.50;;
84974;SDS011;75284;50.310;19.284;2024-01-07T10:05:59;11.70;;;5.00;;
84974;SDS011;75284;50.310;19.284;2024-01-07T10:08:29;7.70;;;4.10;;
84974;SDS011;75284;50.310;19.284;2024-01-07T10:11:00;8.10;;;4.50;;
84974;SDS011;75284;50.310;19.284;2024-01-07T10:13:30;8.50;;;4.90;;
84974;SDS011;75284;50.310;19.284;2024-01-07T10:16:00;6.40;;;3.30;;
84974;SDS011;75284;50.310;19.284;2024-01-07T10:18:30;10.80;;;5.00;;
84974;SDS011;75284;50.310;19.284;2024-01-07T10:21:07;13.60;;;6.70;;
84974;SDS011;75284;50.310;19.284;2024-01-07T10:23:36;12.50;;;5.40;;
84974;SDS011;75284;50.310;19.284;2024-01-07T10:26:06;6.50;;;3.50;;
84974;SDS011;75284;50.310;19.284;2024-01-07T10:28:37;7.00;;;4.00;;
84974;SDS011;75284;50.310;19.284;2024-01-07T10:31:08;18.40;;;7.90;;
84974;SDS011;75284;50.310;19.284;2024-01-07T10:33:37;10.50;;;5.70;;
84974;SDS011;75284;50.310;19.284;2024-01-07T10:36:07;8.60;;;5.00;;
84974;SDS011;75284;50.310;19.284;2024-01-07T10:38:39;9.90;;;3.70;;
84974;SDS011;75284;50.310;19.284;2024-01-07T10:41:12;6.80;;;3.90;;
84974;SDS011;75284;50.310;19.284;2024-01-07T10:43:43;8.40;;;4.40;;
84974;SDS011;75284;50.310;19.284;2024-01-07T10:46:16;6.20;;;3.30;;
84974;SDS011;75284;50.310;19.284;2024-01-07T10:48:49;7.20;;;4.00;;
84974;SDS011;75284;50.310;19.284;2024-01-07T10:51:22;5.80;;;4.00;;
84974;SDS011;75284;50.310;19.284;2024-01-07T10:53:55;7.60;;;4.10;;
84974;SDS011;75284;50.310;19.284;2024-01-07T10:56:28;10.10;;;5.10;;
84974;SDS011;75284;50.310;19.284;2024-01-07T10:59:05;13.50;;;6.70;;
84974;SDS011;75284;50.310;19.284;2024-01-07T11:01:35;8.30;;;4.20;;
84974;SDS011;75284;50.310;19.284;2024-01-07T11:04:08;14.50;;;7.50;;
84974;SDS011;75284;50.310;19.284;2024-01-07T11:06:45;14.40;;;8.40;;
84974;SDS011;75284;50.310;19.284;2024-01-07T11:09:21;11.70;;;6.70;;
84974;SDS011;75284;50.310;19.284;2024-01-07T11:11:57;7.50;;;3.90;;
84974;SDS011;75284;50.310;19.284;2024-01-07T11:14:37;6.40;;;3.90;;
84974;SDS011;75284;50.310;19.284;2024-01-07T11:17:10;8.70;;;5.60;;
84974;SDS011;75284;50.310;19.284;2024-01-07T11:19:50;10.30;;;5.20;;
84974;SDS011;75284;50.310;19.284;2024-01-07T11:22:25;13.20;;;6.10;;
84974;SDS011;75284;50.310;19.284;2024-01-07T11:24:56;8.50;;;3.90;;
84974;SDS011;75284;50.310;19.284;2024-01-07T11:27:27;13.70;;;6.30;;
84974;SDS011;75284;50.310;19.284;2024-01-07T11:30:02;23.50;;;10.00;;
84974;SDS011;75284;50.310;19.284;2024-01-07T11:32:34;23.10;;;9.90;;
84974;SDS011;75284;50.310;19.284;2024-01-07T11:35:06;18.60;;;7.30;;
84974;SDS011;75284;50.310;19.284;2024-01-07T11:37:36;16.60;;;7.70;;
84974;SDS011;75284;50.310;19.284;2024-01-07T11:40:06;20.80;;;7.90;;
84974;SDS011;75284;50.310;19.284;2024-01-07T11:42:36;30.90;;;14.30;;
84974;SDS011;75284;50.310;19.284;2024-01-07T11:45:07;12.70;;;7.50;;
84974;SDS011;75284;50.310;19.284;2024-01-07T11:47:38;27.40;;;10.20;;
84974;SDS011;75284;50.310;19.284;2024-01-07T11:50:08;19.40;;;8.80;;
84974;SDS011;75284;50.310;19.284;2024-01-07T11:52:38;12.60;;;4.90;;
84974;SDS011;75284;50.310;19.284;2024-01-07T11:55:09;15.10;;;6.30;;
84974;SDS011;75284;50.310;19.284;2024-01-07T11:57:39;26.30;;;10.60;;
84974;SDS011;75284;50.310;19.284;2024-01-07T12:00:12;28.60;;;10.30;;
84974;SDS011;75284;50.310;19.284;2024-01-07T12:02:43;37.00;;;13.80;;
84974;SDS011;75284;50.310;19.284;2024-01-07T12:05:13;28.70;;;10.50;;
84974;SDS011;75284;50.310;19.284;2024-01-07T12:07:43;25.90;;;10.40;;
84974;SDS011;75284;50.310;19.284;2024-01-07T12:10:14;16.50;;;7.50;;
84974;SDS011;75284;50.310;19.284;2024-01-07T12:12:45;24.00;;;9.80;;
84974;SDS011;75284;50.310;19.284;2024-01-07T12:15:16;21.60;;;9.40;;
84974;SDS011;75284;50.310;19.284;2024-01-07T12:17:56;22.10;;;8.80;;
84974;SDS011;75284;50.310;19.284;2024-01-07T12:20:27;18.50;;;9.30;;
84974;SDS011;75284;50.310;19.284;2024-01-07T12:23:06;11.30;;;5.80;;
84974;SDS011;75284;50.310;19.284;2024-01-07T12:25:36;7.70;;;4.00;;
84974;SDS011;75284;50.310;19.284;2024-01-07T12:28:07;12.00;;;6.60;;
84974;SDS011;75284;50.310;19.284;2024-01-07T12:30:37;10.40;;;5.40;;
84974;SDS011;75284;50.310;19.284;2024-01-07T12:33:07;7.80;;;3.60;;
84974;SDS011;75284;50.310;19.284;2024-01-07T12:35:37;12.10;;;7.00;;
84974;SDS011;75284;50.310;19.284;2024-01-07T12:38:07;11.30;;;6.40;;
84974;SDS011;75284;50.310;19.284;2024-01-07T12:40:37;15.80;;;7.60;;
84974;SDS011;75284;50.310;19.284;2024-01-07T12:43:07;14.40;;;7.30;;
84974;SDS011;75284;50.310;19.284;2024-01-07T12:45:37;7.20;;;4.20;;
84974;SDS011;75284;50.310;19.284;2024-01-07T12:48:06;12.90;;;6.50;;
84974;SDS011;75284;50.310;19.284;2024-01-07T12:50:36;8.70;;;4.60;;
84974;SDS011;75284;50.310;19.284;2024-01-07T12:53:09;14.10;;;7.00;;
84974;SDS011;75284;50.310;19.284;2024-01-07T12:55:39;21.40;;;10.60;;
84974;SDS011;75284;50.310;19.284;2024-01-07T12:58:09;11.30;;;6.60;;
84974;SDS011;75284;50.310;19.284;2024-01-07T13:00:38;7.80;;;5.40;;
84974;SDS011;75284;50.310;19.284;2024-01-07T13:03:08;13.10;;;6.30;;
84974;SDS011;75284;50.310;19.284;2024-01-07T13:05:45;12.20;;;6.30;;
84974;SDS011;75284;50.310;19.284;2024-01-07T13:08:18;9.10;;;5.50;;
84974;SDS011;75284;50.310;19.284;2024-01-07T13:10:53;9.40;;;4.60;;
84974;SDS011;75284;50.310;19.284;2024-01-07T13:13:24;23.30;;;13.40;;
84974;SDS011;75284;50.310;19.284;2024-01-07T13:15:54;24.60;;;13.00;;
84974;SDS011;75284;50.310;19.284;2024-01-07T13:18:24;12.20;;;6.60;;
84974;SDS011;75284;50.310;19.284;2024-01-07T13:20:54;13.60;;;5.80;;
84974;SDS011;75284;50.310;19.284;2024-01-07T13:23:23;14.70;;;6.30;;
84974;SDS011;75284;50.310;19.284;2024-01-07T13:25:54;9.20;;;4.00;;
84974;SDS011;75284;50.310;19.284;2024-01-07T13:28:24;7.60;;;5.40;;
84974;SDS011;75284;50.310;19.284;2024-01-07T13:30:53;11.00;;;6.30;;
84974;SDS011;75284;50.310;19.284;2024-01-07T13:33:23;17.10;;;8.00;;
84974;SDS011;75284;50.310;19.284;2024-01-07T13:35:52;7.30;;;3.60;;
84974;SDS011;75284;50.310;19.284;2024-01-07T13:38:22;12.00;;;6.90;;
84974;SDS011;75284;50.310;19.284;2024-01-07T13:40:51;12.40;;;5.90;;
84974;SDS011;75284;50.310;19.284;2024-01-07T13:43:22;11.30;;;5.30;;
84974;SDS011;75284;50.310;19.284;2024-01-07T13:45:55;15.30;;;6.30;;
84974;SDS011;75284;50.310;19.284;2024-01-07T13:48:24;16.80;;;7.10;;
84974;SDS011;75284;50.310;19.284;2024-01-07T13:50:54;19.50;;;6.80;;
84974;SDS011;75284;50.310;19.284;2024-01-07T13:53:25;11.70;;;5.00;;
84974;SDS011;75284;50.310;19.284;2024-01-07T13:55:59;19.20;;;8.70;;
84974;SDS011;75284;50.310;19.284;2024-01-07T13:58:29;14.40;;;5.70;;
84974;SDS011;75284;50.310;19.284;2024-01-07T14:00:58;13.90;;;5.80;;
84974;SDS011;75284;50.310;19.284;2024-01-07T14:03:28;12.40;;;5.20;;
84974;SDS011;75284;50.310;19.284;2024-01-07T14:05:58;9.80;;;3.90;;
84974;SDS011;75284;50.310;19.284;2024-01-07T14:08:28;22.40;;;8.70;;
84974;SDS011;75284;50.310;19.284;2024-01-07T14:10:58;23.60;;;8.20;;
84974;SDS011;75284;50.310;19.284;2024-01-07T14:13:27;18.30;;;6.60;;
84974;SDS011;75284;50.310;19.284;2024-01-07T14:15:57;21.60;;;10.40;;
84974;SDS011;75284;50.310;19.284;2024-01-07T14:18:26;8.60;;;5.20;;
84974;SDS011;75284;50.310;19.284;2024-01-07T14:20:56;18.50;;;7.90;;
84974;SDS011;75284;50.310;19.284;2024-01-07T14:23:30;11.50;;;5.10;;
84974;SDS011;75284;50.310;19.284;2024-01-07T14:26:01;13.10;;;6.90;;
84974;SDS011;75284;50.310;19.284;2024-01-07T14:28:31;18.60;;;7.60;;
84974;SDS011;75284;50.310;19.284;2024-01-07T14:31:01;13.30;;;5.40;;
84974;SDS011;75284;50.310;19.284;2024-01-07T14:33:31;20.10;;;10.30;;
84974;SDS011;75284;50.310;19.284;2024-01-07T14:36:01;19.70;;;7.90;;
84974;SDS011;75284;50.310;19.284;2024-01-07T14:38:32;14.00;;;6.60;;
84974;SDS011;75284;50.310;19.284;2024-01-07T14:41:01;12.20;;;7.10;;
84974;SDS011;75284;50.310;19.284;2024-01-07T14:43:31;11.30;;;6.20;;
84974;SDS011;75284;50.310;19.284;2024-01-07T14:46:02;6.50;;;4.20;;
84974;SDS011;75284;50.310;19.284;2024-01-07T14:48:32;10.50;;;5.00;;